Jpo Gemini — A8VF7 — position and weather

sailwx.info

Track history (hours):
 
Tides and Currents Weather Stations Pressure Air Temp Water Temp Dewpoint Dewpoint Depression Visibility Wind Speed Wind Dir Waves Ship Positions

Jpo Gemini

Last reported at 2017-Nov-16 12:00 UTC. Time now 2017-Nov-18 14:20 UTC.
Position S 00°36' E 005°18'.

Length 207 m; draft 11.4 m.

Type: Cargo ship. MMSI: 636091995.

Wind from 160 at 10 knots

Barometer 1012.0 mb
Air temperature 28.0 ° C
Visibility: greater than 10.8 NM
Water temperature 31.0 ° C

Date/timePositionNaut miles runAvg speedWind from/ knotsBaromVisibWave heightAir tempDewpointWater temp
2017-Nov-16 12:00S 00°36' E 005°18'41911.6 160 / 101012.010.8 28.0 31.0
2017-Nov-15 00:00N 05°12' E 001°24'54 2.7 220 / 71011.010.8 27.123.5
2017-Nov-14 04:12N 05°25' E 000°31'417.7
2017-Nov-14 04:01N 05°24' E 000°28'1017.6
2017-Nov-14 03:27N 05°21' E 000°18'817.6
2017-Nov-14 03:00N 05°19' E 000°11'917.9
2017-Nov-14 02:31N 05°15' E 000°03'918.0
2017-Nov-14 02:00N 05°12' W 000°06'918.3
2017-Nov-14 01:30N 05°09' W 000°14'1218.1
2017-Nov-14 00:50N 05°05' W 000°26'45518.3
2017-Nov-13 00:00N 04°12' W 008°00'21417.8 140 / 101010.5 5.4 28.025.3
2017-Nov-12 12:00N 05°48' W 011°12'21217.7 130 / 81012.010.8 30.025.331.0
2017-Nov-12 00:00N 07°42' W 014°12'42017.5 140 / 51011.510.8 27.524.1
2017-Nov-11 00:00N 13°48' W 017°42'82719.3 010 / 81012.510.8 27.524.1
2017-Nov-09 05:07N 27°11' W 014°14'920.0
2017-Nov-09 04:41N 27°19' W 014°09'420.4
2017-Nov-09 04:28N 27°22' W 014°06'1120.6
2017-Nov-09 03:55N 27°32' W 013°59'920.5
2017-Nov-09 03:30N 27°39' W 013°54'1020.3
2017-Nov-09 03:00N 27°47' W 013°48'1020.2
2017-Nov-09 02:30N 27°56' W 013°41'1019.9
2017-Nov-09 02:01N 28°04' W 013°36'1019.6
2017-Nov-09 01:30N 28°13' W 013°30'1019.8
2017-Nov-09 01:00N 28°21' W 013°23'1020.4
2017-Nov-09 00:31N 28°29' W 013°16'1020.2
2017-Nov-09 00:00N 28°37' W 013°09'1219.8
2017-Nov-08 23:24N 28°47' W 013°02'819.8
2017-Nov-08 23:00N 28°53' W 012°56'1019.8
2017-Nov-08 22:29N 29°01' W 012°49'1219.8
2017-Nov-08 21:52N 29°11' W 012°41'819.8
2017-Nov-08 21:28N 29°18' W 012°36'920.0
2017-Nov-08 21:01N 29°25' W 012°30'1020.1
2017-Nov-08 20:30N 29°34' W 012°23'1020.1
2017-Nov-08 20:00N 29°41' W 012°16'1020.4
2017-Nov-08 19:31N 29°50' W 012°09'2320.5
2017-Nov-08 18:24N 30°08' W 011°54'820.3
2017-Nov-08 18:00N 30°15' W 011°49'1020.4
2017-Nov-08 17:30N 30°23' W 011°42'1018.9
2017-Nov-08 16:58N 30°31' W 011°35'920.4
2017-Nov-08 16:30N 30°39' W 011°29'1020.3
2017-Nov-08 16:00N 30°48' W 011°23'1020.7
2017-Nov-08 15:30N 30°56' W 011°16'1120.9
2017-Nov-08 14:58N 31°05' W 011°08'1320.7
2017-Nov-08 14:21N 31°15' W 010°59'1720.1
2017-Nov-08 13:29N 31°29' W 010°47'1520.0
2017-Nov-08 12:45N 31°41' W 010°37'3319.6
2017-Nov-08 11:03N 32°08' W 010°14'220.4
2017-Nov-08 10:58N 32°10' W 010°13'33616.5
2017-Nov-07 14:34N 36°07' W 005°25'0 0.0
2017-Nov-07 14:22N 36°07' W 005°25'0 0.0
2017-Nov-07 13:52N 36°07' W 005°25'0 0.0
2017-Nov-07 13:28N 36°07' W 005°25'0 0.0
2017-Nov-07 12:19N 36°07' W 005°25'0 0.0
2017-Nov-07 11:49N 36°07' W 005°25'0 0.0
2017-Nov-07 11:22N 36°07' W 005°25'0 0.0
2017-Nov-07 10:58N 36°07' W 005°25'0 0.0
2017-Nov-07 10:28N 36°07' W 005°25'0 0.0
2017-Nov-07 09:34N 36°07' W 005°25'  
Track history (hours):
 
Tides and Currents Weather Stations Pressure Air Temp Water Temp Dewpoint Dewpoint Depression Visibility Wind Speed Wind Dir Waves Ship Positions

Jpo Gemini

Last reported at 2017-Nov-16 12:00 UTC. Time now 2017-Nov-18 14:20 UTC.
Position S 00°36' E 005°18'.

Length 207 m; draft 11.4 m.

Type: Cargo ship. MMSI: 636091995.

Wind from 160 at 10 knots

Barometer 1012.0 mb
Air temperature 28.0 ° C
Visibility: greater than 10.8 NM
Water temperature 31.0 ° C

Date/timePositionNaut miles runAvg speedWind from/ knotsBaromVisibWave heightAir tempDewpointWater temp
2017-Nov-16 12:00S 00°36' E 005°18'41911.6 160 / 101012.010.8 28.0 31.0
2017-Nov-15 00:00N 05°12' E 001°24'54 2.7 220 / 71011.010.8 27.123.5
2017-Nov-14 04:12N 05°25' E 000°31'417.7
2017-Nov-14 04:01N 05°24' E 000°28'1017.6
2017-Nov-14 03:27N 05°21' E 000°18'817.6
2017-Nov-14 03:00N 05°19' E 000°11'917.9
2017-Nov-14 02:31N 05°15' E 000°03'918.0
2017-Nov-14 02:00N 05°12' W 000°06'918.3
2017-Nov-14 01:30N 05°09' W 000°14'1218.1
2017-Nov-14 00:50N 05°05' W 000°26'45518.3
2017-Nov-13 00:00N 04°12' W 008°00'21417.8 140 / 101010.5 5.4 28.025.3
2017-Nov-12 12:00N 05°48' W 011°12'21217.7 130 / 81012.010.8 30.025.331.0
2017-Nov-12 00:00N 07°42' W 014°12'42017.5 140 / 51011.510.8 27.524.1
2017-Nov-11 00:00N 13°48' W 017°42'82719.3 010 / 81012.510.8 27.524.1
2017-Nov-09 05:07N 27°11' W 014°14'920.0
2017-Nov-09 04:41N 27°19' W 014°09'420.4
2017-Nov-09 04:28N 27°22' W 014°06'1120.6
2017-Nov-09 03:55N 27°32' W 013°59'920.5
2017-Nov-09 03:30N 27°39' W 013°54'1020.3
2017-Nov-09 03:00N 27°47' W 013°48'1020.2
2017-Nov-09 02:30N 27°56' W 013°41'1019.9
2017-Nov-09 02:01N 28°04' W 013°36'1019.6
2017-Nov-09 01:30N 28°13' W 013°30'1019.8
2017-Nov-09 01:00N 28°21' W 013°23'1020.4
2017-Nov-09 00:31N 28°29' W 013°16'1020.2
2017-Nov-09 00:00N 28°37' W 013°09'1219.8
2017-Nov-08 23:24N 28°47' W 013°02'819.8
2017-Nov-08 23:00N 28°53' W 012°56'1019.8
2017-Nov-08 22:29N 29°01' W 012°49'1219.8
2017-Nov-08 21:52N 29°11' W 012°41'819.8
2017-Nov-08 21:28N 29°18' W 012°36'920.0
2017-Nov-08 21:01N 29°25' W 012°30'1020.1
2017-Nov-08 20:30N 29°34' W 012°23'1020.1
2017-Nov-08 20:00N 29°41' W 012°16'1020.4
2017-Nov-08 19:31N 29°50' W 012°09'2320.5
2017-Nov-08 18:24N 30°08' W 011°54'820.3
2017-Nov-08 18:00N 30°15' W 011°49'1020.4
2017-Nov-08 17:30N 30°23' W 011°42'1018.9
2017-Nov-08 16:58N 30°31' W 011°35'920.4
2017-Nov-08 16:30N 30°39' W 011°29'1020.3
2017-Nov-08 16:00N 30°48' W 011°23'1020.7
2017-Nov-08 15:30N 30°56' W 011°16'1120.9
2017-Nov-08 14:58N 31°05' W 011°08'1320.7
2017-Nov-08 14:21N 31°15' W 010°59'1720.1
2017-Nov-08 13:29N 31°29' W 010°47'1520.0
2017-Nov-08 12:45N 31°41' W 010°37'3319.6
2017-Nov-08 11:03N 32°08' W 010°14'220.4
2017-Nov-08 10:58N 32°10' W 010°13'33616.5
2017-Nov-07 14:34N 36°07' W 005°25'0 0.0
2017-Nov-07 14:22N 36°07' W 005°25'0 0.0
2017-Nov-07 13:52N 36°07' W 005°25'0 0.0
2017-Nov-07 13:28N 36°07' W 005°25'0 0.0
2017-Nov-07 12:19N 36°07' W 005°25'0 0.0
2017-Nov-07 11:49N 36°07' W 005°25'0 0.0
2017-Nov-07 11:22N 36°07' W 005°25'0 0.0
2017-Nov-07 10:58N 36°07' W 005°25'0 0.0
2017-Nov-07 10:28N 36°07' W 005°25'0 0.0
2017-Nov-07 09:34N 36°07' W 005°25'  

Dump ship's entire track history